Time;durP1;ratioP1;P1;durP2;ratioP2;P2;SDS_P1;SDS_P2;PMS_P1;PMS_P2;Temp;Humidity;BMP_temperature;BMP_pressure;BME280_temperature;BME280_humidity;BME280_pressure;Samples;Min_cycle;Max_cycle;Signal;HPM_P1;HPM_P2
2022/12/28 00:01:35;;;;;;;6.30;2.43;;;2.90;99.90;;;;;;5073532;28;20442;-73
2022/12/28 00:04:05;;;;;;;2.77;2.47;;;3.00;99.90;;;;;;5072840;28;20822;-72
2022/12/28 00:06:33;;;;;;;3.80;2.50;;;2.90;99.90;;;;;;5072654;28;20444;-72
2022/12/28 00:09:02;;;;;;;5.83;3.00;;;2.90;99.90;;;;;;5073030;28;20852;-73
2022/12/28 00:11:29;;;;;;;4.87;2.20;;;3.00;99.90;;;;;;5073384;28;20505;-73
2022/12/28 00:13:57;;;;;;;4.10;2.70;;;3.00;99.90;;;;;;5073208;28;20461;-73
2022/12/28 00:16:27;;;;;;;4.40;3.30;;;2.90;99.90;;;;;;5072290;28;20444;-73
2022/12/28 00:18:54;;;;;;;2.80;2.00;;;3.00;99.90;;;;;;5072665;28;20507;-73
2022/12/28 00:21:21;;;;;;;6.13;2.90;;;2.90;99.90;;;;;;5072412;28;20446;-72
2022/12/28 00:23:51;;;;;;;4.80;2.20;;;2.90;99.90;;;;;;5073040;28;20895;-72
2022/12/28 00:26:20;;;;;;;4.60;2.43;;;2.90;99.90;;;;;;5071958;28;20434;-73
2022/12/28 00:28:47;;;;;;;3.30;1.77;;;3.00;99.90;;;;;;5072660;28;20477;-73
2022/12/28 00:31:14;;;;;;;1.97;1.77;;;3.00;99.90;;;;;;5072313;28;20438;-73
2022/12/28 00:33:41;;;;;;;3.40;2.07;;;2.90;99.90;;;;;;5072819;28;20449;-73
2022/12/28 00:36:11;;;;;;;2.90;2.17;;;3.00;99.90;;;;;;5071845;28;20454;-73
2022/12/28 00:38:39;;;;;;;3.67;2.03;;;3.00;99.90;;;;;;5073063;28;20466;-73
2022/12/28 00:41:06;;;;;;;3.00;1.90;;;3.00;99.90;;;;;;5072118;28;20470;-72
2022/12/28 00:43:34;;;;;;;3.30;2.07;;;3.00;99.90;;;;;;5072396;28;20450;-72
2022/12/28 00:46:02;;;;;;;2.10;1.60;;;3.10;99.90;;;;;;5059189;28;20439;-73
2022/12/28 00:48:29;;;;;;;1.53;1.30;;;3.10;99.90;;;;;;5071808;28;20442;-72
2022/12/28 00:51:02;;;;;;;3.47;3.17;;;3.10;99.90;;;;;;5072645;28;20760;-73
2022/12/28 00:53:29;;;;;;;2.67;2.03;;;3.10;99.70;;;;;;5072557;28;20463;-73
2022/12/28 00:55:55;;;;;;;8.17;1.90;;;3.10;99.90;;;;;;5072528;28;20448;-73
2022/12/28 00:58:22;;;;;;;3.97;2.30;;;3.00;99.90;;;;;;5071339;28;20490;-73
2022/12/28 01:00:50;;;;;;;3.90;2.30;;;3.10;99.90;;;;;;5072004;28;20462;-74
2022/12/28 01:03:17;;;;;;;3.70;2.63;;;3.20;99.90;;;;;;5071577;28;20447;-73
2022/12/28 01:05:44;;;;;;;3.03;2.20;;;3.10;99.90;;;;;;5071986;28;20806;-73
2022/12/28 01:08:11;;;;;;;3.03;2.07;;;3.10;99.90;;;;;;5070335;28;20810;-72
2022/12/28 01:10:38;;;;;;;1.90;1.63;;;3.10;99.90;;;;;;5072183;28;20480;-73
2022/12/28 01:13:05;;;;;;;2.60;2.00;;;3.10;98.00;;;;;;5071632;28;20874;-72
2022/12/28 01:15:32;;;;;;;3.23;1.70;;;3.10;97.50;;;;;;5072084;28;20454;-73
2022/12/28 01:18:00;;;;;;;3.13;1.95;;;3.10;99.90;;;;;;5071427;28;20446;-72
2022/12/28 01:20:27;;;;;;;4.30;1.73;;;3.10;97.00;;;;;;5072386;28;20205;-73
2022/12/28 01:22:55;;;;;;;2.20;2.00;;;3.20;96.40;;;;;;5071866;28;20440;-73
2022/12/28 01:25:22;;;;;;;2.57;2.03;;;3.20;92.00;;;;;;5071479;28;20449;-73
2022/12/28 01:27:48;;;;;;;2.40;1.93;;;3.30;88.80;;;;;;5071507;28;20460;-73
2022/12/28 01:30:15;;;;;;;3.17;1.83;;;3.30;91.10;;;;;;5071183;28;20488;-72
2022/12/28 01:32:42;;;;;;;1.77;1.60;;;3.40;48.60;;;;;;5071533;28;20457;-73
2022/12/28 01:35:10;;;;;;;1.83;1.50;;;3.40;45.40;;;;;;5071374;28;20897;-72
2022/12/28 01:37:37;;;;;;;3.50;2.40;;;3.30;54.00;;;;;;5070816;28;20448;-73
2022/12/28 01:40:05;;;;;;;2.57;2.17;;;3.40;52.30;;;;;;5070775;28;20945;-72
2022/12/28 01:42:32;;;;;;;2.03;1.57;;;3.40;52.40;;;;;;5071503;28;20532;-73
2022/12/28 01:45:16;;;;;;;2.77;2.57;;;3.40;33.80;;;;;;5071634;28;20448;-73
2022/12/28 01:47:45;;;;;;;2.13;1.30;;;3.40;52.10;;;;;;5071024;28;20440;-72
2022/12/28 01:50:16;;;;;;;1.70;1.47;;;3.40;53.20;;;;;;5070814;28;20476;-73
2022/12/28 01:52:47;;;;;;;3.27;1.80;;;3.50;57.40;;;;;;5071408;28;20449;-73
2022/12/28 01:55:17;;;;;;;1.60;1.33;;;3.50;41.90;;;;;;5070394;28;20440;-72
2022/12/28 01:57:48;;;;;;;2.53;1.60;;;3.60;9.60;;;;;;5070569;28;20456;-73
2022/12/28 02:00:16;;;;;;;1.50;1.23;;;3.60;3.70;;;;;;5070438;28;20929;-73
2022/12/28 02:02:48;;;;;;;2.37;1.83;;;3.60;1.00;;;;;;5070568;28;20976;-73
2022/12/28 02:05:17;;;;;;;3.30;1.77;;;3.60;1.00;;;;;;5070744;28;20450;-72
2022/12/28 02:07:51;;;;;;;1.47;1.20;;;3.70;1.00;;;;;;5070894;28;20468;-73
2022/12/28 02:10:20;;;;;;;2.87;1.50;;;3.70;1.00;;;;;;5070629;28;20485;-72
2022/12/28 02:12:47;;;;;;;3.13;1.20;;;3.60;1.00;;;;;;5071164;28;20458;-73
2022/12/28 02:15:14;;;;;;;2.20;1.33;;;3.70;1.00;;;;;;5070154;28;20448;-73
2022/12/28 02:17:41;;;;;;;2.47;1.53;;;3.70;1.00;;;;;;5070672;28;20454;-73
2022/12/28 02:20:09;;;;;;;5.00;1.50;;;3.70;1.00;;;;;;5056670;28;20795;-73
2022/12/28 02:23:16;;;;;;;1.43;0.90;;;3.80;1.00;;;;;;5071008;28;20821;-72
2022/12/28 02:26:04;;;;;;;3.20;1.27;;;3.90;1.00;;;;;;5071045;28;20437;-72
2022/12/28 02:29:26;;;;;;;2.73;1.40;;;3.90;1.00;;;;;;5071069;28;20460;-73
2022/12/28 02:32:00;;;;;;;2.60;1.20;;;3.90;1.00;;;;;;5070716;28;20449;-72
2022/12/28 02:34:33;;;;;;;2.87;1.93;;;3.90;1.00;;;;;;5070932;28;20444;-72
2022/12/28 02:37:08;;;;;;;3.23;1.53;;;4.00;1.00;;;;;;5070523;28;20442;-73
2022/12/28 02:39:41;;;;;;;1.27;1.03;;;4.10;1.00;;;;;;5058145;28;20484;-73
2022/12/28 02:42:09;;;;;;;1.00;0.90;;;4.30;1.00;;;;;;5070294;28;20438;-72
2022/12/28 02:50:11;;;;;;;1.10;0.90;;;4.50;1.00;;;;;;5069797;28;20473;-72
2022/12/28 02:53:05;;;;;;;1.80;1.10;;;4.60;1.00;;;;;;5070707;28;20469;-72
2022/12/28 02:58:53;;;;;;;1.70;1.23;;;4.60;1.00;;;;;;5070641;28;20425;-72
2022/12/28 03:01:33;;;;;;;1.00;0.80;;;4.60;1.00;;;;;;5069730;28;21317;-72
2022/12/28 03:04:08;;;;;;;2.20;1.40;;;4.60;1.00;;;;;;5057865;28;20453;-72
2022/12/28 03:09:34;;;;;;;1.67;0.70;;;4.70;1.00;;;;;;5070243;28;20517;-72
2022/12/28 03:12:06;;;;;;;2.70;1.20;;;4.80;1.00;;;;;;5056808;28;20450;-72
2022/12/28 03:14:40;;;;;;;1.00;0.67;;;4.90;1.00;;;;;;5070584;28;20469;-72
2022/12/28 03:31:13;;;;;;;0.90;0.73;;;5.10;99.90;;;;;;5070089;28;20522;-72
2022/12/28 03:33:44;;;;;;;1.00;0.80;;;5.10;99.90;;;;;;5073711;28;20453;-72
2022/12/28 03:36:17;;;;;;;2.00;1.00;;;5.10;99.90;;;;;;5072657;28;20950;-72
2022/12/28 03:38:51;;;;;;;1.10;0.87;;;5.10;99.90;;;;;;5073565;28;20481;-73
2022/12/28 03:41:24;;;;;;;1.50;0.90;;;5.10;99.90;;;;;;5073214;28;20448;-72
2022/12/28 03:43:53;;;;;;;1.53;0.80;;;5.20;99.90;;;;;;5073841;28;20456;-72
2022/12/28 03:46:24;;;;;;;0.90;0.50;;;5.20;99.90;;;;;;5072524;28;20834;-73
2022/12/28 03:48:53;;;;;;;3.63;2.03;;;5.20;99.90;;;;;;5073312;28;20445;-73
2022/12/28 03:51:22;;;;;;;1.73;1.03;;;5.20;99.90;;;;;;5073141;28;21170;-73
2022/12/28 03:53:49;;;;;;;1.00;0.80;;;5.20;99.90;;;;;;5073275;28;20454;-73
2022/12/28 03:56:17;;;;;;;1.10;0.87;;;5.30;99.90;;;;;;5072816;28;20457;-72
2022/12/28 03:58:44;;;;;;;1.40;1.03;;;5.30;99.90;;;;;;5073509;28;20799;-72
2022/12/28 04:01:11;;;;;;;1.60;1.03;;;5.30;99.90;;;;;;5073000;28;20797;-73
2022/12/28 04:03:38;;;;;;;1.87;1.33;;;5.30;99.90;;;;;;5073433;28;20456;-72
2022/12/28 04:06:08;;;;;;;0.90;0.70;;;5.30;99.90;;;;;;5072556;28;20467;-72
2022/12/28 04:08:35;;;;;;;1.50;0.90;;;5.30;99.90;;;;;;5073137;28;20484;-72
2022/12/28 04:11:02;;;;;;;2.80;1.33;;;5.30;99.90;;;;;;5072468;28;20484;-73
2022/12/28 04:13:30;;;;;;;1.60;1.10;;;5.30;99.90;;;;;;5073009;28;20445;-72
2022/12/28 04:15:59;;;;;;;4.40;1.33;;;5.30;99.90;;;;;;5073028;28;20515;-72
2022/12/28 04:18:26;;;;;;;1.10;0.70;;;5.30;99.90;;;;;;5073075;28;20453;-72
2022/12/28 04:20:54;;;;;;;0.93;0.57;;;5.40;99.90;;;;;;5072874;28;20458;-73
2022/12/28 04:23:22;;;;;;;1.33;0.80;;;5.40;99.90;;;;;;5072557;28;20869;-72
2022/12/28 04:25:59;;;;;;;1.07;0.70;;;5.20;99.90;;;;;;5072661;28;20534;-72
2022/12/28 04:28:26;;;;;;;1.00;0.77;;;5.20;99.90;;;;;;5073276;28;20452;-72
2022/12/28 04:30:53;;;;;;;2.20;0.73;;;5.30;99.90;;;;;;5072968;28;20555;-72
2022/12/28 04:33:19;;;;;;;0.90;0.73;;;5.30;99.90;;;;;;5071988;28;20932;-72
2022/12/28 04:35:46;;;;;;;0.77;0.50;;;5.40;99.90;;;;;;5072171;28;20449;-73
2022/12/28 04:38:13;;;;;;;2.17;0.70;;;5.40;99.90;;;;;;5072445;28;20471;-72
2022/12/28 04:40:41;;;;;;;2.10;0.90;;;5.40;99.90;;;;;;5072322;28;21017;-72
2022/12/28 04:43:08;;;;;;;1.10;0.80;;;5.40;99.90;;;;;;5071546;28;20453;-72
2022/12/28 04:45:35;;;;;;;1.00;0.80;;;5.50;99.90;;;;;;5072385;28;20936;-72
2022/12/28 04:48:02;;;;;;;1.00;0.70;;;5.50;99.90;;;;;;5071443;28;20464;-72
2022/12/28 04:50:30;;;;;;;0.87;0.73;;;5.40;99.90;;;;;;5072519;28;20488;-72
2022/12/28 04:52:58;;;;;;;1.70;0.90;;;5.50;99.90;;;;;;5072665;28;20463;-73
2022/12/28 04:55:25;;;;;;;5.60;0.93;;;5.50;99.90;;;;;;5072340;28;20502;-72
2022/12/28 04:57:53;;;;;;;0.97;0.63;;;5.50;99.90;;;;;;5072065;28;20537;-72
2022/12/28 05:00:20;;;;;;;1.40;0.67;;;5.60;99.90;;;;;;5071509;28;20712;-73
2022/12/28 05:02:47;;;;;;;1.20;0.70;;;5.60;99.90;;;;;;5072146;28;20455;-72
2022/12/28 05:05:13;;;;;;;1.17;0.87;;;5.60;99.90;;;;;;5071580;28;20451;-72
2022/12/28 05:07:40;;;;;;;3.00;0.70;;;5.70;99.90;;;;;;5071430;28;20459;-72
2022/12/28 05:10:08;;;;;;;2.90;1.00;;;5.60;99.90;;;;;;5070939;28;20496;-72
2022/12/28 05:12:34;;;;;;;1.83;0.70;;;5.60;99.90;;;;;;5071945;28;20464;-72
2022/12/28 05:15:03;;;;;;;1.33;1.00;;;5.70;99.90;;;;;;5071262;28;20969;-72
2022/12/28 05:17:30;;;;;;;1.30;0.70;;;5.70;99.90;;;;;;5071456;28;20940;-72
2022/12/28 05:19:56;;;;;;;3.23;0.70;;;5.70;99.90;;;;;;5071729;28;20963;-73
2022/12/28 05:22:23;;;;;;;1.53;0.70;;;5.70;99.90;;;;;;5071369;28;20463;-72
2022/12/28 05:24:50;;;;;;;0.87;0.60;;;5.80;17.50;;;;;;5071893;28;20449;-72
2022/12/28 05:27:17;;;;;;;1.20;0.80;;;5.80;1.00;;;;;;5071018;28;20551;-72
2022/12/28 05:29:43;;;;;;;1.30;0.90;;;5.80;23.10;;;;;;5071450;28;20452;-72
2022/12/28 05:32:12;;;;;;;1.10;0.90;;;5.80;33.40;;;;;;5071255;28;20801;-72
2022/12/28 05:34:38;;;;;;;1.80;0.80;;;5.80;1.00;;;;;;5071646;28;20456;-72
2022/12/28 05:37:05;;;;;;;0.90;0.60;;;5.80;10.40;;;;;;5070548;28;20472;-72
2022/12/28 05:39:32;;;;;;;1.70;1.43;;;5.90;1.00;;;;;;5058564;28;20453;-73
2022/12/28 05:41:59;;;;;;;1.73;0.87;;;5.90;1.00;;;;;;5071570;28;20452;-72
2022/12/28 05:44:26;;;;;;;3.00;1.30;;;5.90;1.00;;;;;;5071433;28;21304;-72
2022/12/28 05:46:53;;;;;;;1.97;0.70;;;5.90;1.00;;;;;;5071061;28;20460;-73
2022/12/28 05:49:21;;;;;;;1.30;0.93;;;5.90;1.00;;;;;;5070728;28;20710;-72
2022/12/28 05:51:50;;;;;;;1.03;0.53;;;5.90;6.40;;;;;;5071373;28;20489;-73
2022/12/28 05:54:17;;;;;;;1.40;1.00;;;5.90;1.00;;;;;;5070868;28;20502;-72
2022/12/28 05:56:44;;;;;;;0.73;0.47;;;5.90;9.80;;;;;;5070922;28;20448;-73
2022/12/28 05:59:12;;;;;;;1.20;0.70;;;6.00;1.00;;;;;;5070830;28;20452;-73
2022/12/28 06:01:41;;;;;;;1.63;0.93;;;5.90;1.00;;;;;;5071000;28;20453;-73
2022/12/28 06:04:13;;;;;;;1.33;1.20;;;6.00;1.00;;;;;;5070890;28;20450;-72
2022/12/28 06:06:41;;;;;;;0.80;0.60;;;6.00;1.00;;;;;;5071226;28;20438;-73
2022/12/28 06:09:08;;;;;;;1.43;0.70;;;6.00;1.00;;;;;;5070684;28;20836;-73
2022/12/28 06:11:35;;;;;;;0.90;0.67;;;6.10;1.00;;;;;;5071240;28;20488;-73
2022/12/28 06:14:04;;;;;;;1.13;0.70;;;6.10;1.00;;;;;;5071065;28;20449;-73
2022/12/28 06:16:33;;;;;;;1.87;1.30;;;6.20;1.00;;;;;;5070949;28;20786;-73
2022/12/28 06:19:04;;;;;;;1.30;0.80;;;6.10;1.00;;;;;;5071373;28;20442;-72
2022/12/28 06:21:32;;;;;;;2.30;1.03;;;6.20;1.00;;;;;;5071552;28;20459;-72
2022/12/28 06:24:01;;;;;;;1.10;0.90;;;6.20;1.00;;;;;;5071555;28;20453;-72
2022/12/28 06:26:30;;;;;;;1.47;0.83;;;6.20;1.00;;;;;;5070941;28;20467;-72
2022/12/28 06:28:57;;;;;;;0.70;0.50;;;6.20;1.00;;;;;;5071200;28;20438;-72
2022/12/28 06:31:26;;;;;;;1.27;0.67;;;6.20;1.00;;;;;;5057507;28;20508;-72
2022/12/28 06:33:55;;;;;;;1.40;0.87;;;6.20;1.00;;;;;;5070767;28;20453;-72
2022/12/28 06:36:24;;;;;;;1.10;0.60;;;6.30;99.90;;;;;;5070353;28;20454;-72
2022/12/28 06:38:53;;;;;;;1.90;0.87;;;6.40;99.90;;;;;;5070800;28;20471;-73
2022/12/28 06:41:22;;;;;;;1.40;0.90;;;6.40;99.90;;;;;;5070743;28;20694;-72
2022/12/28 06:43:50;;;;;;;4.37;0.90;;;6.30;99.90;;;;;;5071155;28;20454;-72
2022/12/28 06:46:18;;;;;;;1.17;0.77;;;6.30;99.90;;;;;;5070257;28;20798;-72
2022/12/28 06:48:45;;;;;;;1.10;0.87;;;6.30;99.90;;;;;;5070809;28;20791;-72
2022/12/28 06:51:14;;;;;;;1.13;0.63;;;6.30;99.90;;;;;;5070122;28;20483;-72
2022/12/28 06:53:41;;;;;;;1.57;0.70;;;6.30;1.00;;;;;;5070760;28;20453;-72
2022/12/28 06:56:11;;;;;;;0.80;0.60;;;6.20;1.00;;;;;;5070010;28;20448;-73
2022/12/28 06:58:39;;;;;;;1.17;0.77;;;6.30;1.00;;;;;;5070917;28;20456;-72
2022/12/28 07:01:07;;;;;;;2.40;1.03;;;6.20;1.00;;;;;;5070379;28;20453;-72
2022/12/28 07:03:34;;;;;;;1.00;0.87;;;6.20;1.00;;;;;;5070381;28;20456;-72
2022/12/28 07:06:01;;;;;;;1.73;1.07;;;6.20;1.00;;;;;;5070554;28;20450;-72
2022/12/28 07:08:28;;;;;;;2.20;1.13;;;6.20;1.00;;;;;;5074757;28;20833;-72
2022/12/28 07:10:55;;;;;;;4.70;1.33;;;6.20;1.00;;;;;;5074897;28;20473;-73
2022/12/28 07:13:22;;;;;;;1.50;0.90;;;6.20;1.00;;;;;;5073916;28;20535;-72
2022/12/28 07:15:50;;;;;;;1.13;0.73;;;6.20;1.00;;;;;;5074173;28;20961;-73
2022/12/28 07:18:17;;;;;;;0.90;0.60;;;6.20;1.00;;;;;;5074018;28;20444;-72
2022/12/28 07:20:44;;;;;;;1.77;0.80;;;6.10;1.00;;;;;;5074688;28;20455;-72
2022/12/28 07:23:11;;;;;;;2.70;1.40;;;6.10;1.00;;;;;;5074161;28;20801;-72
2022/12/28 07:25:37;;;;;;;1.50;1.00;;;6.10;1.00;;;;;;5074363;28;20459;-73
2022/12/28 07:28:04;;;;;;;1.80;1.13;;;6.10;1.00;;;;;;5073635;28;20444;-72
2022/12/28 07:30:31;;;;;;;3.80;2.00;;;6.20;1.00;;;;;;5074641;28;20452;-72
2022/12/28 07:33:00;;;;;;;1.50;1.13;;;6.20;1.00;;;;;;5074570;28;20467;-72
2022/12/28 07:35:27;;;;;;;5.30;1.70;;;6.20;1.00;;;;;;5074045;28;20443;-72
2022/12/28 07:37:54;;;;;;;1.80;0.90;;;6.20;1.00;;;;;;5074044;28;20465;-72
2022/12/28 07:40:21;;;;;;;1.60;1.03;;;6.20;1.00;;;;;;5073752;28;20458;-72
2022/12/28 07:42:48;;;;;;;1.63;1.13;;;6.20;1.00;;;;;;5074394;28;20471;-72
2022/12/28 07:45:15;;;;;;;2.20;1.10;;;6.10;1.00;;;;;;5073663;28;20445;-74
2022/12/28 07:47:41;;;;;;;5.80;1.93;;;6.10;1.00;;;;;;5073729;28;20453;-72
2022/12/28 07:50:10;;;;;;;1.00;0.70;;;6.10;70.70;;;;;;5073468;28;20444;-72
2022/12/28 07:52:37;;;;;;;2.60;1.33;;;6.10;25.60;;;;;;5074149;28;20489;-72
2022/12/28 07:55:04;;;;;;;3.43;1.30;;;6.10;1.00;;;;;;5073181;28;20452;-72
2022/12/28 07:57:31;;;;;;;1.93;1.10;;;6.20;1.00;;;;;;5073756;28;20449;-72
2022/12/28 07:59:58;;;;;;;1.60;1.10;;;6.20;1.00;;;;;;5073929;28;20802;-72
2022/12/28 08:02:24;;;;;;;0.90;0.70;;;6.30;1.00;;;;;;5073395;28;20564;-72
2022/12/28 08:04:51;;;;;;;1.83;1.07;;;6.30;1.00;;;;;;5073749;28;20466;-72
2022/12/28 08:07:19;;;;;;;2.23;1.20;;;6.30;1.00;;;;;;5072638;28;20468;-72
2022/12/28 08:09:46;;;;;;;2.63;1.27;;;6.40;1.00;;;;;;5073288;28;20557;-72
2022/12/28 08:12:13;;;;;;;1.83;1.00;;;6.40;1.00;;;;;;5072941;28;21007;-72
2022/12/28 08:14:40;;;;;;;3.53;1.17;;;6.40;1.00;;;;;;5073673;28;20457;-73
2022/12/28 08:17:06;;;;;;;1.93;0.90;;;6.40;1.00;;;;;;5072321;28;20541;-72
2022/12/28 08:19:33;;;;;;;2.43;1.17;;;6.40;1.00;;;;;;5072709;28;20807;-73
2022/12/28 08:22:00;;;;;;;1.53;1.07;;;6.40;1.00;;;;;;5073074;28;20461;-72
2022/12/28 08:24:28;;;;;;;1.90;1.30;;;6.40;1.00;;;;;;5073684;28;20493;-72
2022/12/28 08:26:55;;;;;;;0.70;0.50;;;6.50;1.00;;;;;;5073255;28;20949;-73
2022/12/28 08:29:22;;;;;;;2.20;1.57;;;6.50;1.00;;;;;;5072817;28;20455;-72
2022/12/28 08:31:49;;;;;;;1.47;0.90;;;6.50;1.00;;;;;;5073427;28;20489;-72
2022/12/28 08:34:18;;;;;;;1.63;0.90;;;6.50;1.00;;;;;;5072652;28;20450;-72
2022/12/28 08:36:45;;;;;;;4.07;1.30;;;6.60;1.00;;;;;;5072876;28;20447;-72
2022/12/28 08:39:13;;;;;;;1.10;0.90;;;6.60;1.00;;;;;;5072400;28;20451;-72
2022/12/28 08:41:41;;;;;;;0.80;0.63;;;6.60;1.00;;;;;;5072973;28;20450;-72
2022/12/28 08:44:08;;;;;;;1.20;0.80;;;6.60;1.00;;;;;;5072555;28;20450;-72
2022/12/28 08:46:36;;;;;;;1.43;1.00;;;6.70;99.90;;;;;;5072444;28;20454;-73
2022/12/28 08:49:04;;;;;;;2.43;1.87;;;6.70;99.90;;;;;;5072313;28;20450;-72
2022/12/28 08:51:32;;;;;;;2.37;1.10;;;6.70;99.90;;;;;;5072923;28;20477;-72
2022/12/28 08:54:00;;;;;;;1.67;0.80;;;6.70;99.90;;;;;;5072769;28;20458;-72
2022/12/28 08:56:29;;;;;;;1.80;1.10;;;;;;;;;;5072361;28;20457;-72
2022/12/28 08:58:59;;;;;;;5.83;1.00;;;;;;;;;;5072979;28;20447;-72
2022/12/28 09:01:27;;;;;;;5.23;1.07;;;6.80;1.00;;;;;;5072699;28;20508;-72
2022/12/28 09:03:56;;;;;;;1.73;0.90;;;7.20;1.00;;;;;;5072568;28;20448;-72
2022/12/28 09:06:25;;;;;;;1.53;0.87;;;7.20;1.00;;;;;;5071660;28;20799;-73
2022/12/28 09:08:55;;;;;;;1.17;0.80;;;7.60;99.90;;;;;;5059617;28;20533;-72
2022/12/28 09:11:22;;;;;;;0.90;0.60;;;7.40;99.90;;;;;;5071665;28;20483;-72
2022/12/28 09:13:49;;;;;;;1.30;0.83;;;7.40;1.00;;;;;;5072273;28;20468;-73
2022/12/28 09:16:22;;;;;;;1.50;0.87;;;7.40;1.00;;;;;;5071492;28;20444;-72
2022/12/28 09:18:53;;;;;;;2.50;1.00;;;7.50;1.00;;;;;;5072358;28;20538;-73
2022/12/28 09:21:22;;;;;;;1.97;0.80;;;7.50;1.00;;;;;;5071770;28;21295;-73
2022/12/28 09:23:49;;;;;;;1.13;0.90;;;7.60;1.00;;;;;;5072348;28;20449;-73
2022/12/28 09:26:18;;;;;;;1.13;0.90;;;7.70;99.90;;;;;;5070878;28;20763;-73
2022/12/28 09:28:46;;;;;;;1.43;0.67;;;7.80;99.90;;;;;;5071630;28;20810;-73
2022/12/28 09:31:13;;;;;;;0.93;0.70;;;7.80;1.00;;;;;;5071483;28;20484;-73
2022/12/28 09:34:00;;;;;;;0.90;0.70;;;7.80;1.00;;;;;;5072061;28;20445;-72
2022/12/28 09:36:29;;;;;;;1.00;0.90;;;7.90;1.00;;;;;;5071531;28;20939;-73
2022/12/28 09:38:57;;;;;;;1.50;0.90;;;7.90;99.90;;;;;;5072298;28;20461;-72
2022/12/28 09:41:28;;;;;;;2.50;1.07;;;7.90;99.90;;;;;;5071518;28;20485;-73
2022/12/28 09:44:04;;;;;;;1.63;0.87;;;7.90;99.90;;;;;;5072252;28;20441;-73
2022/12/28 09:46:34;;;;;;;0.90;0.70;;;8.00;99.90;;;;;;5071693;28;20444;-74
2022/12/28 09:49:05;;;;;;;2.80;1.10;;;8.00;99.90;;;;;;5071439;28;20450;-72
2022/12/28 09:51:38;;;;;;;2.20;0.97;;;8.00;99.90;;;;;;5072019;28;20472;-73
2022/12/28 09:54:05;;;;;;;1.10;0.70;;;8.00;99.90;;;;;;5058349;28;20456;-72
2022/12/28 09:56:36;;;;;;;1.20;0.77;;;8.10;99.90;;;;;;5071336;28;20450;-72
2022/12/28 09:59:05;;;;;;;4.60;1.30;;;8.20;39.50;;;;;;5070854;28;20452;-72
2022/12/28 10:01:35;;;;;;;1.20;0.90;;;8.30;6.10;;;;;;5071657;28;20801;-73
2022/12/28 10:04:04;;;;;;;1.00;0.90;;;8.40;1.00;;;;;;5071437;28;20450;-72
2022/12/28 10:06:34;;;;;;;1.03;0.70;;;8.40;1.00;;;;;;5071244;28;20441;-73
2022/12/28 10:09:02;;;;;;;2.37;1.20;;;8.50;1.00;;;;;;5070799;28;20485;-72
2022/12/28 10:11:33;;;;;;;1.13;0.73;;;8.50;1.00;;;;;;5071213;28;20496;-73
2022/12/28 10:14:12;;;;;;;2.33;0.70;;;8.60;1.00;;;;;;5071734;28;20442;-73
2022/12/28 10:16:39;;;;;;;1.03;0.70;;;8.60;1.00;;;;;;5070994;28;20442;-72
2022/12/28 10:19:08;;;;;;;1.80;1.07;;;8.80;1.00;;;;;;5070711;28;20515;-72
2022/12/28 10:21:36;;;;;;;2.53;1.03;;;8.80;1.00;;;;;;5071017;28;20449;-74
2022/12/28 10:24:06;;;;;;;0.90;0.70;;;9.00;1.00;;;;;;5070892;28;20441;-73
2022/12/28 10:26:34;;;;;;;1.37;0.90;;;9.10;1.00;;;;;;5058015;28;20445;-73
2022/12/28 10:29:01;;;;;;;1.43;0.77;;;9.30;1.00;;;;;;5070818;28;20448;-73
2022/12/28 10:31:36;;;;;;;3.00;1.00;;;9.20;1.00;;;;;;5071040;28;20459;-73
2022/12/28 10:34:13;;;;;;;1.00;0.60;;;9.30;1.00;;;;;;5070681;28;20828;-73
2022/12/28 10:36:40;;;;;;;1.47;0.90;;;9.40;1.00;;;;;;5070969;28;20769;-73
2022/12/28 10:39:15;;;;;;;0.90;0.60;;;9.60;1.00;;;;;;5070291;28;20467;-73
2022/12/28 10:41:44;;;;;;;2.00;0.80;;;9.70;1.00;;;;;;5070515;28;20456;-73
2022/12/28 10:44:21;;;;;;;1.47;0.97;;;9.80;1.00;;;;;;5070527;28;20536;-73
2022/12/28 10:46:59;;;;;;;0.70;0.50;;;9.90;1.00;;;;;;5070350;28;20442;-73
2022/12/28 10:49:31;;;;;;;1.73;1.27;;;10.00;1.00;;;;;;5070785;28;21265;-73
2022/12/28 10:52:04;;;;;;;0.73;0.47;;;10.00;1.00;;;;;;5070992;28;20581;-73
2022/12/28 10:54:34;;;;;;;1.33;0.90;;;10.10;99.90;;;;;;5071134;28;20442;-73
2022/12/28 10:57:01;;;;;;;0.87;0.57;;;10.10;99.90;;;;;;5069774;28;20976;-73
2022/12/28 10:59:29;;;;;;;1.77;0.80;;;10.10;99.90;;;;;;5070804;28;20931;-73
2022/12/28 11:02:20;;;;;;;0.97;0.57;;;10.10;99.90;;;;;;5070857;28;20450;-73
2022/12/28 11:04:57;;;;;;;4.60;0.80;;;10.00;99.90;;;;;;5070703;28;20437;-73
2022/12/28 11:07:28;;;;;;;2.43;0.83;;;10.00;99.90;;;;;;5069749;28;20459;-73
2022/12/28 11:10:14;;;;;;;3.07;0.60;;;10.00;99.90;;;;;;5071195;28;20481;-73
2022/12/28 11:12:44;;;;;;;2.20;0.83;;;10.00;99.90;;;;;;5070798;28;20478;-73
2022/12/28 11:15:14;;;;;;;1.63;0.80;;;10.00;99.90;;;;;;5070077;28;20774;-73
2022/12/28 11:17:41;;;;;;;0.70;0.50;;;10.00;99.90;;;;;;5070882;28;20768;-73
2022/12/28 11:20:18;;;;;;;0.97;0.87;;;10.10;99.90;;;;;;5057015;28;20450;-73
2022/12/28 11:22:45;;;;;;;0.97;0.87;;;10.10;99.90;;;;;;5070675;28;20460;-73
2022/12/28 11:25:15;;;;;;;0.90;0.63;;;10.20;99.90;;;;;;5069773;28;20444;-73
2022/12/28 11:27:42;;;;;;;0.80;0.70;;;10.10;99.90;;;;;;5070866;28;20831;-73
2022/12/28 11:30:14;;;;;;;1.20;0.77;;;10.10;99.90;;;;;;5070165;28;20800;-73
2022/12/28 11:32:48;;;;;;;1.07;0.80;;;10.00;99.90;;;;;;5070509;28;20473;-73
2022/12/28 11:35:20;;;;;;;1.10;0.50;;;10.10;99.90;;;;;;5069660;28;20446;-73
2022/12/28 11:37:56;;;;;;;1.23;0.70;;;10.10;99.90;;;;;;5070452;28;20495;-74
2022/12/28 11:40:46;;;;;;;2.17;0.80;;;10.20;99.90;;;;;;5070090;28;20442;-73
2022/12/28 11:43:51;;;;;;;1.20;0.70;;;10.30;99.90;;;;;;5070248;28;20835;-73
2022/12/28 11:46:42;;;;;;;1.87;0.73;;;10.20;99.90;;;;;;5054182;28;20462;-74
2022/12/28 11:49:32;;;;;;;0.70;0.50;;;10.20;99.90;;;;;;5069898;28;20441;-73
2022/12/28 11:52:34;;;;;;;1.17;0.83;;;10.10;99.90;;;;;;5070897;28;20467;-73
2022/12/28 11:55:02;;;;;;;1.23;0.73;;;10.10;99.90;;;;;;5070760;28;20452;-72
2022/12/28 11:57:37;;;;;;;1.70;0.93;;;10.20;99.90;;;;;;5074135;28;20457;-73
2022/12/28 12:00:41;;;;;;;1.80;0.83;;;10.20;99.90;;;;;;5073466;28;20458;-73
2022/12/28 12:03:08;;;;;;;1.23;0.80;;;10.20;99.90;;;;;;5063339;28;20477;-73
2022/12/28 12:05:49;;;;;;;0.90;0.60;;;10.30;99.90;;;;;;5073012;28;20557;-73
2022/12/28 12:08:41;;;;;;;2.03;1.00;;;10.30;99.90;;;;;;5072738;28;20881;-73
2022/12/28 12:11:32;;;;;;;0.63;0.50;;;10.30;99.90;;;;;;5073398;28;20502;-71
2022/12/28 12:14:01;;;;;;;0.80;0.50;;;10.20;99.90;;;;;;5063476;28;20490;-74
2022/12/28 12:16:35;;;;;;;1.20;0.80;;;10.30;99.90;;;;;;5073257;28;20801;-74
2022/12/28 12:19:06;;;;;;;0.80;0.63;;;10.30;99.90;;;;;;5072873;28;20947;-74
2022/12/28 12:21:36;;;;;;;1.93;0.90;;;10.30;99.90;;;;;;5073522;28;20481;-74
2022/12/28 12:24:18;;;;;;;1.00;0.70;;;10.30;99.90;;;;;;5072919;28;20464;-73
2022/12/28 12:26:50;;;;;;;1.00;0.60;;;10.40;99.90;;;;;;5073122;28;20767;-73
2022/12/28 12:29:22;;;;;;;1.50;0.87;;;10.30;99.90;;;;;;5072522;28;20923;-73
2022/12/28 12:31:57;;;;;;;1.30;0.90;;;10.40;99.90;;;;;;5072789;28;20468;-73
2022/12/28 12:34:29;;;;;;;0.70;0.50;;;10.50;99.90;;;;;;5072719;28;20470;-73
2022/12/28 12:37:18;;;;;;;0.80;0.60;;;10.60;99.90;;;;;;5073054;28;20528;-73
2022/12/28 12:40:17;;;;;;;1.10;0.73;;;10.70;99.90;;;;;;5073382;28;20451;-74
2022/12/28 12:42:59;;;;;;;0.77;0.53;;;10.70;99.90;;;;;;5035349;28;20802;-73
2022/12/28 12:45:36;;;;;;;2.00;1.03;;;10.90;99.90;;;;;;5072818;28;20459;-73
2022/12/28 12:48:17;;;;;;;2.20;0.93;;;10.80;99.90;;;;;;5072337;28;20451;-73
2022/12/28 12:50:57;;;;;;;0.90;0.50;;;10.80;99.90;;;;;;5072925;28;20460;-73
2022/12/28 12:53:42;;;;;;;5.00;0.80;;;10.80;99.90;;;;;;5072122;28;21024;-73
2022/12/28 12:56:21;;;;;;;1.07;0.70;;;10.70;99.90;;;;;;5061396;28;20638;-73
2022/12/28 12:59:00;;;;;;;1.17;1.03;;;10.60;99.90;;;;;;5072883;28;20454;-74
2022/12/28 13:01:39;;;;;;;0.83;0.50;;;10.60;99.90;;;;;;5072625;28;20453;-74
2022/12/28 13:04:18;;;;;;;1.00;0.80;;;10.70;99.90;;;;;;5059528;28;20452;-73
2022/12/28 13:06:44;;;;;;;1.20;0.60;;;10.70;99.90;;;;;;5071433;28;20455;-73
2022/12/28 13:09:16;;;;;;;1.17;0.80;;;10.70;99.90;;;;;;5071252;28;20493;-73
2022/12/28 13:11:43;;;;;;;1.20;0.50;;;10.70;99.90;;;;;;5072421;28;20456;-73
2022/12/28 13:14:18;;;;;;;1.30;1.10;;;10.60;99.90;;;;;;5072064;28;20833;-73
2022/12/28 13:16:48;;;;;;;2.57;0.60;;;10.50;99.90;;;;;;5072116;28;20535;-72
2022/12/28 13:19:19;;;;;;;1.50;0.90;;;10.50;99.90;;;;;;5071989;28;20446;-73
2022/12/28 13:21:48;;;;;;;1.67;0.77;;;10.50;99.90;;;;;;5072363;28;20481;-73
2022/12/28 13:24:20;;;;;;;1.37;0.93;;;10.40;99.90;;;;;;5071563;28;20463;-73
2022/12/28 13:26:47;;;;;;;2.40;0.80;;;10.40;99.90;;;;;;5071897;28;20825;-74
2022/12/28 13:29:19;;;;;;;1.20;0.70;;;10.30;99.90;;;;;;5071405;28;20456;-73
2022/12/28 13:31:48;;;;;;;1.77;1.03;;;10.20;99.90;;;;;;5072199;28;20454;-73
2022/12/28 13:34:19;;;;;;;2.57;1.20;;;10.20;99.90;;;;;;5071339;28;20491;-73
2022/12/28 13:36:52;;;;;;;5.40;1.10;;;10.20;99.90;;;;;;5071411;28;20810;-73
2022/12/28 13:39:20;;;;;;;2.40;2.00;;;10.20;99.90;;;;;;5071105;28;20510;-74
2022/12/28 13:41:51;;;;;;;2.70;0.93;;;10.20;99.90;;;;;;5071950;28;20980;-73
2022/12/28 13:44:33;;;;;;;5.13;1.17;;;10.10;99.90;;;;;;5071394;28;20812;-73